createdAt,value
2023-04-24T00:02:22.069Z,53.88
2023-04-24T00:17:25.345Z,54.32
2023-04-24T00:32:28.108Z,59.79
2023-04-24T00:47:31.537Z,58.01
2023-04-24T01:02:35.621Z,59.98
2023-04-24T01:17:39.692Z,61.00
2023-04-24T01:32:45.533Z,58.02
2023-04-24T01:47:50.005Z,57.18
2023-04-24T02:02:53.256Z,58.50
2023-04-24T02:17:56.118Z,60.64
2023-04-24T02:32:59.156Z,58.81
2023-04-24T02:48:01.820Z,59.98
2023-04-24T03:03:04.797Z,56.29
2023-04-24T03:18:07.594Z,57.34
2023-04-24T03:33:10.864Z,61.34
2023-04-24T03:48:13.755Z,58.96
2023-04-24T04:03:17.306Z,59.35
2023-04-24T04:18:20.244Z,56.63
2023-04-24T04:33:23.365Z,57.79
2023-04-24T04:48:25.919Z,57.70
2023-04-24T05:03:28.774Z,55.54
2023-04-24T05:18:31.724Z,55.55
2023-04-24T05:33:34.449Z,50.50
2023-04-24T05:48:37.236Z,48.47
2023-04-24T06:03:40.559Z,50.43
2023-04-24T06:18:43.597Z,51.14
2023-04-24T06:33:46.745Z,49.72
2023-04-24T06:48:49.576Z,50.15
2023-04-24T07:03:52.229Z,51.38
2023-04-24T07:18:54.965Z,52.73
2023-04-24T07:33:59.199Z,52.37
2023-04-24T07:49:12.459Z,50.03
2023-04-24T08:04:16.812Z,49.49
2023-04-24T08:19:19.595Z,49.10
2023-04-24T08:34:22.894Z,50.15
2023-04-24T08:49:26.812Z,53.53
2023-04-24T09:04:31.202Z,56.66
2023-04-24T09:19:34.145Z,49.34
2023-04-24T09:34:36.778Z,45.72
2023-04-24T09:49:40.243Z,42.40
2023-04-24T10:04:55.030Z,42.67
2023-04-24T10:19:59.627Z,43.18
2023-04-24T10:35:02.264Z,45.22
2023-04-24T10:50:11.140Z,46.48
2023-04-24T11:05:16.030Z,46.77
2023-04-24T11:20:27.682Z,46.56
2023-04-24T11:35:36.762Z,47.87
2023-04-24T11:50:40.093Z,47.52
2023-04-24T12:05:43.206Z,46.78
2023-04-24T12:20:46.325Z,47.28
2023-04-24T12:35:54.238Z,49.45
2023-04-24T12:51:02.631Z,51.26
2023-04-24T13:06:06.684Z,50.98
2023-04-24T13:21:09.344Z,52.83
2023-04-24T13:36:12.191Z,54.24
2023-04-24T13:51:15.020Z,54.01
2023-04-24T14:06:18.577Z,53.44
2023-04-24T14:21:21.598Z,56.85
2023-04-24T14:36:24.299Z,56.01
2023-04-24T14:51:28.136Z,56.68
2023-04-24T15:06:32.525Z,58.42
2023-04-24T15:21:37.338Z,59.89
2023-04-24T15:36:39.978Z,56.67
2023-04-24T15:51:42.551Z,56.04
2023-04-24T16:06:45.258Z,56.44
2023-04-24T16:21:47.810Z,58.48
2023-04-24T16:36:50.390Z,59.63
2023-04-24T16:51:53.042Z,62.86
2023-04-24T17:06:55.947Z,65.28
2023-04-24T17:21:59.154Z,63.51
2023-04-24T17:37:02.316Z,64.62
2023-04-24T17:52:06.134Z,62.27
2023-04-24T18:07:08.821Z,63.35
2023-04-24T18:22:11.489Z,65.53
2023-04-24T18:37:14.612Z,68.24
2023-04-24T18:52:17.254Z,64.84
2023-04-24T19:07:20.699Z,64.57
2023-04-24T19:22:24.437Z,64.74
2023-04-24T19:37:27.260Z,66.36
2023-04-24T19:52:29.953Z,65.30
2023-04-24T20:07:32.646Z,65.19
2023-04-24T20:22:38.996Z,64.35
2023-04-24T20:37:42.404Z,64.23
2023-04-24T20:52:50.308Z,65.19
2023-04-24T21:07:56.055Z,65.77
2023-04-24T21:22:58.874Z,64.12
2023-04-24T21:38:02.097Z,62.27
2023-04-24T21:53:04.720Z,60.03
2023-04-24T22:08:07.431Z,59.91
2023-04-24T22:23:10.714Z,59.67
2023-04-24T22:38:13.364Z,58.37
2023-04-24T22:53:16.459Z,59.77
2023-04-24T23:08:19.153Z,59.03
2023-04-24T23:23:21.926Z,58.85
2023-04-24T23:38:24.523Z,59.40
2023-04-24T23:53:27.186Z,58.62
